Winterport, Maine
Current Conditions -  °F | °C
As of 12:53 PM on Sunday 21 Dec 2014 (Local Time) from KBGR Reporting Station
Overcast Overcast  
Wind Chill: 24°   Ceiling: 900
Heat Index: 29°   Visibility: 10mi
Dew Point: 24°   Wind: 5mph
Humidity: 82%   Direction: 10°N
Pressure: 30.33"   Gusts: NA
Location:  44.65°N, 68.86°W
Report Text: KBGR 211753Z 01004KT 10SM BKN009 OVC041 M02/M04 A3033 RMK AO2 SLP275 4/002 60000 T10171044 11017 21039 56014
Loading
Personal Weather Stations






























Interactive Weather Map New forecast layout! Learn more

10-Day Weather Forecast

Advertisements
Track Severe Weather on mobile